Main page
METAR-TAF:

METAR-TAF

Airports :

Whistler/Green Lake Water Aerodrome

Whistler, British Columbia, Canada

latitude: 50-08N, longitude: 122-57W, elevation: 658 m

Current weather observation

The report was made 12 hours and 14 minutes ago, at 01:00 UTC
Wind 3 kt from the South
Temperature 13°C
Humidity 51%
Pressure 1020 hPa
Visibility: 24.1 km
Broken clouds at a height of 7200 ft

METAR: CWAE 200100Z 18003KT 15SM BKN072 13/03 A3013 RMK CU7 LAST OBS/NEXT 201300UTC WIND EST SLP210

Time: 06:14 (13:14 UTC)


TAF: missing

Weather observations and forecasts of more than 4000 airports (METAR and TAF reports).

The available stations are represented by yellow and red dots on the map.

Hover mouse over dot to see the name of the station.

Then click to see weather observations and forecasts.

To change the map : click on the green buttons with a black cross to zoom in, on the green button with a dash to zoom out, or on the green arrows for adjacent maps.


METAR-TAF: